createdAt,value
2018-12-19T00:00:15.850Z,404.63
2018-12-19T00:01:15.823Z,405.04
2018-12-19T00:02:15.842Z,406.02
2018-12-19T00:03:15.827Z,406.62
2018-12-19T00:04:15.801Z,405.87
2018-12-19T00:05:15.798Z,406.11
2018-12-19T00:06:15.767Z,404.16
2018-12-19T00:07:15.759Z,404.16
2018-12-19T00:08:15.769Z,405.28
2018-12-19T00:09:15.749Z,406.43
2018-12-19T00:10:15.743Z,405.31
2018-12-19T00:11:15.730Z,407.23
2018-12-19T00:12:15.715Z,405.85
2018-12-19T00:13:15.716Z,404.94
2018-12-19T00:14:15.699Z,406.77
2018-12-19T00:15:15.681Z,405.79
2018-12-19T00:16:15.661Z,408.02
2018-12-19T00:17:15.671Z,405.23
2018-12-19T00:18:15.701Z,406.49
2018-12-19T00:19:15.688Z,405.20
2018-12-19T00:20:15.626Z,405.59
2018-12-19T00:21:15.626Z,407.97
2018-12-19T00:22:15.608Z,405.06
2018-12-19T00:23:15.598Z,404.67
2018-12-19T00:24:15.590Z,406.90
2018-12-19T00:25:15.586Z,407.30
2018-12-19T00:26:15.563Z,408.29
2018-12-19T00:27:15.561Z,405.38
2018-12-19T00:28:15.539Z,405.48
2018-12-19T00:29:15.535Z,406.81
2018-12-19T00:30:15.544Z,405.28
2018-12-19T00:31:15.520Z,407.26
2018-12-19T00:32:15.509Z,405.33
2018-12-19T00:33:15.486Z,406.22
2018-12-19T00:34:15.476Z,405.42
2018-12-19T00:35:15.502Z,404.93
2018-12-19T00:36:15.468Z,404.41
2018-12-19T00:37:15.436Z,407.33
2018-12-19T00:38:15.438Z,404.84
2018-12-19T00:39:16.124Z,406.47
2018-12-19T00:40:15.413Z,407.05
2018-12-19T00:41:15.435Z,407.40
2018-12-19T00:42:15.394Z,405.61
2018-12-19T00:43:15.382Z,404.65
2018-12-19T00:44:15.367Z,408.61
2018-12-19T00:45:15.361Z,407.94
2018-12-19T00:46:15.368Z,407.03
2018-12-19T00:47:15.329Z,407.59
2018-12-19T00:48:15.322Z,407.89
2018-12-19T00:49:15.311Z,405.74
2018-12-19T00:50:15.310Z,407.12
2018-12-19T00:51:15.325Z,406.48
2018-12-19T00:52:15.274Z,406.36
2018-12-19T00:53:15.275Z,405.45
2018-12-19T00:54:15.266Z,405.15
2018-12-19T00:55:15.249Z,406.30
2018-12-19T00:56:15.249Z,405.87
2018-12-19T00:57:15.247Z,406.40
2018-12-19T00:58:15.232Z,406.35
2018-12-19T00:59:15.201Z,408.94
2018-12-19T01:00:15.190Z,405.53
2018-12-19T01:01:15.193Z,407.41
2018-12-19T01:02:15.215Z,405.71
2018-12-19T01:03:15.175Z,406.96
2018-12-19T01:04:15.159Z,405.23
2018-12-19T01:05:15.135Z,407.15
2018-12-19T01:06:15.133Z,406.51
2018-12-19T01:07:15.138Z,405.80
2018-12-19T01:08:15.145Z,404.88
2018-12-19T01:09:16.014Z,406.57
2018-12-19T01:10:15.091Z,406.15
2018-12-19T01:11:15.067Z,404.81
2018-12-19T01:12:15.073Z,404.61
2018-12-19T01:13:15.095Z,406.36
2018-12-19T01:14:15.049Z,406.47
2018-12-19T01:15:15.037Z,405.46
2018-12-19T01:16:15.033Z,407.47
2018-12-19T01:17:15.012Z,404.84
2018-12-19T01:18:14.992Z,406.58
2018-12-19T01:19:15.020Z,407.26
2018-12-19T01:20:14.985Z,407.13
2018-12-19T01:21:14.973Z,405.83
2018-12-19T01:22:14.971Z,405.97
2018-12-19T01:23:14.953Z,405.04
2018-12-19T01:24:14.930Z,404.08
2018-12-19T01:25:14.950Z,405.70
2018-12-19T01:26:14.925Z,405.78
2018-12-19T01:27:14.918Z,406.02
2018-12-19T01:28:14.894Z,404.82
2018-12-19T01:29:14.882Z,405.46
2018-12-19T01:30:14.894Z,407.27
2018-12-19T01:31:14.859Z,405.01
2018-12-19T01:32:14.858Z,404.47
2018-12-19T01:33:14.855Z,406.77
2018-12-19T01:34:14.858Z,408.00
2018-12-19T01:35:14.823Z,405.80
2018-12-19T01:36:14.819Z,407.55
2018-12-19T01:37:14.791Z,407.26
2018-12-19T01:38:14.804Z,405.56
2018-12-19T01:39:14.782Z,404.45
2018-12-19T01:40:14.766Z,405.42
2018-12-19T01:41:14.755Z,404.25
2018-12-19T01:42:14.740Z,405.51
2018-12-19T01:43:14.743Z,404.52
2018-12-19T01:44:14.734Z,405.26
2018-12-19T01:45:14.712Z,409.52
2018-12-19T01:46:14.704Z,405.54
2018-12-19T01:47:14.691Z,405.39
2018-12-19T01:48:14.705Z,404.42
2018-12-19T01:49:14.684Z,405.46
2018-12-19T01:50:14.661Z,404.04
2018-12-19T01:51:14.633Z,404.82
2018-12-19T01:52:14.634Z,408.47
2018-12-19T01:53:14.629Z,404.22
2018-12-19T01:54:14.638Z,406.71
2018-12-19T01:55:14.602Z,404.47
2018-12-19T01:56:14.608Z,406.87
2018-12-19T01:57:14.592Z,404.59
2018-12-19T01:58:14.600Z,405.65
2018-12-19T01:59:14.591Z,406.86
2018-12-19T02:00:14.573Z,405.68
2018-12-19T02:01:14.543Z,405.71
2018-12-19T02:02:14.537Z,405.24
2018-12-19T02:03:14.530Z,405.30
2018-12-19T02:04:14.506Z,405.59
2018-12-19T02:05:14.526Z,404.96
2018-12-19T02:06:14.504Z,405.72
2018-12-19T02:07:14.479Z,407.43
2018-12-19T02:08:14.485Z,404.49
2018-12-19T02:09:14.448Z,406.76
2018-12-19T02:10:14.469Z,404.17
2018-12-19T02:11:14.436Z,405.67
2018-12-19T02:12:14.507Z,404.05
2018-12-19T02:13:14.419Z,404.58
2018-12-19T02:14:14.417Z,403.58
2018-12-19T02:15:14.385Z,405.60
2018-12-19T02:16:14.412Z,405.41
2018-12-19T02:17:14.375Z,404.59
2018-12-19T02:18:14.382Z,406.05
2018-12-19T02:19:14.350Z,407.19
2018-12-19T02:20:14.349Z,406.06
2018-12-19T02:21:14.341Z,406.52
2018-12-19T02:22:14.333Z,407.43
2018-12-19T02:23:14.305Z,404.62
2018-12-19T02:24:14.314Z,404.96
2018-12-19T02:25:14.293Z,406.44
2018-12-19T02:26:14.289Z,404.16
2018-12-19T02:27:14.255Z,404.79
2018-12-19T02:28:14.242Z,406.55
2018-12-19T02:29:14.246Z,404.52
2018-12-19T02:30:14.269Z,404.19
2018-12-19T02:31:14.229Z,404.16
2018-12-19T02:32:14.211Z,407.60
2018-12-19T02:33:14.195Z,407.07
2018-12-19T02:34:14.196Z,405.23
2018-12-19T02:35:14.203Z,404.77
2018-12-19T02:36:14.169Z,405.37
2018-12-19T02:37:14.158Z,403.97
2018-12-19T02:38:14.152Z,407.88
2018-12-19T02:39:14.139Z,405.58
2018-12-19T02:40:14.129Z,404.58
2018-12-19T02:41:14.143Z,406.72
2018-12-19T02:42:14.091Z,406.43
2018-12-19T02:43:14.102Z,405.64
2018-12-19T02:44:14.084Z,404.03
2018-12-19T02:45:14.061Z,406.21
2018-12-19T02:46:14.060Z,407.01
2018-12-19T02:47:14.064Z,407.04
2018-12-19T02:48:14.036Z,406.73
2018-12-19T02:49:14.022Z,405.20
2018-12-19T02:50:14.016Z,406.61
2018-12-19T02:51:14.011Z,405.82
2018-12-19T02:52:14.051Z,405.20
2018-12-19T02:53:13.973Z,404.32
2018-12-19T02:54:13.966Z,404.35
2018-12-19T02:55:13.973Z,406.43
2018-12-19T02:56:13.944Z,404.32
2018-12-19T02:57:13.955Z,404.90
2018-12-19T02:58:13.971Z,406.35
2018-12-19T02:59:13.909Z,405.13
2018-12-19T03:00:13.906Z,405.65
2018-12-19T03:01:13.907Z,407.86
2018-12-19T03:02:13.909Z,404.67
2018-12-19T03:03:13.888Z,406.01
2018-12-19T03:04:13.888Z,407.80
2018-12-19T03:05:13.861Z,405.74
2018-12-19T03:06:13.844Z,407.33
2018-12-19T03:07:13.834Z,404.48
2018-12-19T03:08:13.813Z,406.65
2018-12-19T03:09:13.868Z,403.82
2018-12-19T03:10:13.809Z,404.72
2018-12-19T03:11:13.800Z,405.51
2018-12-19T03:12:13.788Z,405.06
2018-12-19T03:13:13.779Z,406.84
2018-12-19T03:14:13.773Z,405.78
2018-12-19T03:15:13.752Z,404.96
2018-12-19T03:16:13.746Z,406.67
2018-12-19T03:17:13.720Z,405.24
2018-12-19T03:18:13.744Z,406.23
2018-12-19T03:19:13.695Z,407.67
2018-12-19T03:20:13.684Z,404.33
2018-12-19T03:21:13.689Z,407.02
2018-12-19T03:22:13.681Z,407.26
2018-12-19T03:23:13.664Z,404.40
2018-12-19T03:24:13.688Z,404.89
2018-12-19T03:25:13.652Z,405.08
2018-12-19T03:26:13.624Z,405.67
2018-12-19T03:27:13.620Z,405.72
2018-12-19T03:28:13.608Z,404.83
2018-12-19T03:29:13.616Z,405.59
2018-12-19T03:30:13.604Z,405.58
2018-12-19T03:31:13.569Z,405.71
2018-12-19T03:32:13.574Z,408.18
2018-12-19T03:33:13.552Z,405.04
2018-12-19T03:34:13.566Z,406.77
2018-12-19T03:35:13.533Z,407.78
2018-12-19T03:36:13.569Z,405.98
2018-12-19T03:37:13.502Z,405.88
2018-12-19T03:38:13.491Z,405.87
2018-12-19T03:39:13.477Z,407.68
2018-12-19T03:40:13.470Z,406.80
2018-12-19T03:41:13.465Z,405.92
2018-12-19T03:42:13.473Z,405.75
2018-12-19T03:43:13.448Z,405.66
2018-12-19T03:44:13.445Z,404.59
2018-12-19T03:45:13.414Z,406.86
2018-12-19T03:46:13.419Z,407.37
2018-12-19T03:47:13.438Z,405.16
2018-12-19T03:48:13.401Z,404.98
2018-12-19T03:49:13.395Z,406.84
2018-12-19T03:50:13.364Z,406.61
2018-12-19T03:51:13.361Z,405.65
2018-12-19T03:52:13.358Z,405.50
2018-12-19T03:53:13.333Z,406.01
2018-12-19T03:54:13.348Z,405.27
2018-12-19T03:55:13.334Z,405.47
2018-12-19T03:56:13.313Z,407.57
2018-12-19T03:57:13.290Z,405.52
2018-12-19T03:58:13.301Z,407.53
2018-12-19T03:59:13.276Z,404.91
2018-12-19T04:00:13.300Z,405.45
2018-12-19T04:01:13.254Z,406.72
2018-12-19T04:02:13.249Z,405.53
2018-12-19T04:03:13.237Z,405.94
2018-12-19T04:04:13.230Z,408.21
2018-12-19T04:05:13.218Z,407.66
2018-12-19T04:06:13.228Z,406.00
2018-12-19T04:07:13.181Z,407.68
2018-12-19T04:08:13.189Z,407.85
2018-12-19T04:09:13.170Z,406.93
2018-12-19T04:10:13.167Z,405.67
2018-12-19T04:11:13.186Z,406.19
2018-12-19T04:12:13.126Z,406.74
2018-12-19T04:13:13.126Z,406.15
2018-12-19T04:14:13.109Z,406.28
2018-12-19T04:15:13.113Z,405.61
2018-12-19T04:16:13.085Z,404.74
2018-12-19T04:17:13.092Z,406.50
2018-12-19T04:18:13.057Z,405.65
2018-12-19T04:19:13.117Z,405.23
2018-12-19T04:20:13.054Z,407.47
2018-12-19T04:21:13.049Z,409.10
2018-12-19T04:22:13.025Z,407.67
2018-12-19T04:23:13.038Z,407.48
2018-12-19T04:24:12.996Z,407.64
2018-12-19T04:25:13.012Z,406.72
2018-12-19T04:26:12.991Z,405.22
2018-12-19T04:27:12.988Z,407.10
2018-12-19T04:28:12.960Z,406.58
2018-12-19T04:29:12.962Z,406.54
2018-12-19T04:30:12.939Z,405.71
2018-12-19T04:31:12.924Z,406.32
2018-12-19T04:32:12.919Z,407.53
2018-12-19T04:33:12.922Z,404.91
2018-12-19T04:34:12.900Z,405.94
2018-12-19T04:35:12.908Z,405.88
2018-12-19T04:36:12.870Z,406.44
2018-12-19T04:37:12.890Z,404.56
2018-12-19T04:38:12.852Z,409.07
2018-12-19T04:39:12.863Z,407.52
2018-12-19T04:40:12.872Z,405.92
2018-12-19T04:41:12.810Z,407.18
2018-12-19T04:42:12.812Z,405.81
2018-12-19T04:43:12.819Z,407.05
2018-12-19T04:44:12.807Z,407.51
2018-12-19T04:45:12.805Z,405.67
2018-12-19T04:46:12.776Z,405.79
2018-12-19T04:47:12.838Z,406.21
2018-12-19T04:48:12.793Z,404.82
2018-12-19T04:49:12.726Z,406.41
2018-12-19T04:50:12.724Z,405.82
2018-12-19T04:51:12.713Z,405.54
2018-12-19T04:52:12.725Z,405.82
2018-12-19T04:53:14.552Z,406.30
2018-12-19T04:54:12.716Z,407.28
2018-12-19T04:55:12.668Z,408.66
2018-12-19T04:56:12.664Z,407.48
2018-12-19T04:57:12.650Z,407.16
2018-12-19T04:58:12.655Z,407.12
2018-12-19T04:59:12.635Z,405.65
2018-12-19T05:00:12.770Z,407.33
2018-12-19T05:01:12.595Z,406.53
2018-12-19T05:02:12.608Z,408.00
2018-12-19T05:03:12.582Z,408.85
2018-12-19T05:04:12.579Z,407.94
2018-12-19T05:05:12.598Z,406.51
2018-12-19T05:06:12.549Z,406.56
2018-12-19T05:07:12.536Z,410.24
2018-12-19T05:08:12.532Z,408.73
2018-12-19T05:09:12.530Z,408.71
2018-12-19T05:10:12.615Z,408.40
2018-12-19T05:11:12.537Z,407.95
2018-12-19T05:12:12.508Z,408.06
2018-12-19T05:13:12.470Z,408.81
2018-12-19T05:14:12.477Z,409.01
2018-12-19T05:15:12.459Z,407.15
2018-12-19T05:16:12.436Z,409.35
2018-12-19T05:17:12.469Z,408.21
2018-12-19T05:18:12.428Z,407.46
2018-12-19T05:19:12.417Z,410.70
2018-12-19T05:20:12.417Z,409.96
2018-12-19T05:21:12.393Z,408.06
2018-12-19T05:22:12.400Z,407.92
2018-12-19T05:23:12.370Z,409.96
2018-12-19T05:24:12.384Z,409.11
2018-12-19T05:25:12.355Z,409.70
2018-12-19T05:26:12.328Z,408.86
2018-12-19T05:27:12.315Z,410.28
2018-12-19T05:28:12.305Z,410.64
2018-12-19T05:29:12.308Z,410.12
2018-12-19T05:30:12.324Z,408.51
2018-12-19T05:31:12.283Z,409.08
2018-12-19T05:32:12.269Z,409.65
2018-12-19T05:33:12.264Z,408.98
2018-12-19T05:34:12.237Z,409.33
2018-12-19T05:35:12.260Z,408.39
2018-12-19T05:36:12.221Z,409.17
2018-12-19T05:37:12.224Z,409.63
2018-12-19T05:38:12.206Z,409.45
2018-12-19T05:39:12.203Z,408.87
2018-12-19T05:40:18.580Z,408.49
2018-12-19T05:41:13.184Z,408.96
2018-12-19T05:42:12.171Z,407.85
2018-12-19T05:43:12.167Z,409.47
2018-12-19T05:44:12.143Z,408.90
2018-12-19T05:45:12.128Z,409.08
2018-12-19T05:46:12.151Z,408.56
2018-12-19T05:47:12.115Z,410.83
2018-12-19T05:48:12.086Z,407.66
2018-12-19T05:49:12.103Z,409.59
2018-12-19T05:50:12.136Z,410.05
2018-12-19T05:51:12.080Z,408.97
2018-12-19T05:52:12.085Z,409.45
2018-12-19T05:53:12.028Z,407.50
2018-12-19T05:54:12.033Z,409.87
2018-12-19T05:55:12.036Z,409.88
2018-12-19T05:56:12.018Z,408.86
2018-12-19T05:57:12.020Z,410.16
2018-12-19T05:58:11.986Z,408.59
2018-12-19T05:59:11.986Z,407.97
2018-12-19T06:00:11.964Z,409.74
2018-12-19T06:01:11.957Z,409.65
2018-12-19T06:02:11.979Z,409.66
2018-12-19T06:03:11.932Z,408.77
2018-12-19T06:04:11.927Z,410.40
2018-12-19T06:05:11.904Z,408.52
2018-12-19T06:06:11.898Z,408.31
2018-12-19T06:07:11.883Z,409.43
2018-12-19T06:08:11.916Z,408.89
2018-12-19T06:09:11.891Z,410.28
2018-12-19T06:10:11.868Z,408.17
2018-12-19T06:11:11.844Z,408.58
2018-12-19T06:12:11.850Z,408.93
2018-12-19T06:13:11.828Z,409.50
2018-12-19T06:14:11.839Z,409.62
2018-12-19T06:15:11.805Z,408.63
2018-12-19T06:16:11.796Z,407.33
2018-12-19T06:17:11.771Z,407.55
2018-12-19T06:18:11.789Z,409.13
2018-12-19T06:19:11.757Z,408.48
2018-12-19T06:20:11.756Z,410.15
2018-12-19T06:21:11.741Z,409.42
2018-12-19T06:22:11.750Z,408.25
2018-12-19T06:23:11.718Z,408.92
2018-12-19T06:24:11.714Z,407.98
2018-12-19T06:25:11.721Z,410.05
2018-12-19T06:26:12.169Z,410.28
2018-12-19T06:27:11.676Z,409.02
2018-12-19T06:28:11.678Z,408.32
2018-12-19T06:29:11.641Z,408.57
2018-12-19T06:30:11.631Z,409.50
2018-12-19T06:31:11.633Z,409.40
2018-12-19T06:32:11.647Z,410.34
2018-12-19T06:33:11.641Z,410.05
2018-12-19T06:34:11.620Z,410.82
2018-12-19T06:35:11.597Z,408.00
2018-12-19T06:36:11.587Z,409.87
2018-12-19T06:37:11.567Z,408.43
2018-12-19T06:38:11.577Z,408.54
2018-12-19T06:39:11.541Z,408.78
2018-12-19T06:40:11.532Z,408.23
2018-12-19T06:41:11.519Z,409.90
2018-12-19T06:42:11.538Z,407.77
2018-12-19T06:43:11.506Z,408.09
2018-12-19T06:44:11.481Z,407.40
2018-12-19T06:45:11.482Z,409.60
2018-12-19T06:46:11.491Z,408.66
2018-12-19T06:47:11.458Z,410.12
2018-12-19T06:48:11.458Z,409.06
2018-12-19T06:49:11.438Z,410.30
2018-12-19T06:50:11.424Z,409.84
2018-12-19T06:51:11.414Z,408.87
2018-12-19T06:52:11.408Z,410.77
2018-12-19T06:53:11.396Z,409.17
2018-12-19T06:54:11.386Z,408.88
2018-12-19T06:55:11.377Z,409.17
2018-12-19T06:56:11.381Z,408.31
2018-12-19T06:57:11.374Z,409.21
2018-12-19T06:58:11.352Z,409.12
2018-12-19T06:59:11.345Z,409.40
2018-12-19T07:00:11.325Z,409.96
2018-12-19T07:01:11.295Z,407.57
2018-12-19T07:02:11.317Z,407.89
2018-12-19T07:03:11.287Z,407.85
2018-12-19T07:04:11.268Z,409.87
2018-12-19T07:05:11.277Z,409.19
2018-12-19T07:06:11.258Z,409.41
2018-12-19T07:07:11.266Z,410.05
2018-12-19T07:08:11.232Z,407.43
2018-12-19T07:09:11.218Z,410.39
2018-12-19T07:10:11.211Z,409.24
2018-12-19T07:11:11.189Z,409.81
2018-12-19T07:12:11.188Z,408.81
2018-12-19T07:13:11.202Z,409.73
2018-12-19T07:14:11.167Z,408.69
2018-12-19T07:15:11.164Z,408.62
2018-12-19T07:16:11.138Z,407.83
2018-12-19T07:17:11.140Z,409.98
2018-12-19T07:18:11.174Z,409.35
2018-12-19T07:19:11.125Z,408.12
2018-12-19T07:20:11.108Z,409.48
2018-12-19T07:21:11.081Z,408.96
2018-12-19T07:22:11.071Z,406.85
2018-12-19T07:23:11.084Z,409.56
2018-12-19T07:24:11.064Z,408.38
2018-12-19T07:25:11.066Z,408.91
2018-12-19T07:26:11.050Z,408.68
2018-12-19T07:27:11.029Z,410.18
2018-12-19T07:28:11.023Z,408.06
2018-12-19T07:29:11.016Z,409.08
2018-12-19T07:30:10.994Z,409.40
2018-12-19T07:31:10.988Z,409.23
2018-12-19T07:32:10.989Z,409.58
2018-12-19T07:33:10.962Z,410.43
2018-12-19T07:34:10.956Z,409.86
2018-12-19T07:35:10.964Z,408.27
2018-12-19T07:36:10.935Z,408.96
2018-12-19T07:37:10.928Z,409.18
2018-12-19T07:38:10.905Z,409.88
2018-12-19T07:39:10.902Z,409.45
2018-12-19T07:40:10.901Z,407.36
2018-12-19T07:41:10.903Z,410.13
2018-12-19T07:42:10.870Z,409.85
2018-12-19T07:43:10.855Z,409.18
2018-12-19T07:44:10.838Z,410.53
2018-12-19T07:45:10.840Z,410.16
2018-12-19T07:46:10.849Z,407.21
2018-12-19T07:47:10.846Z,407.99
2018-12-19T07:48:10.796Z,409.59
2018-12-19T07:49:10.800Z,409.12
2018-12-19T07:50:10.796Z,409.82
2018-12-19T07:51:10.806Z,410.14
2018-12-19T07:52:10.772Z,409.90
2018-12-19T07:53:10.790Z,408.20
2018-12-19T07:54:10.728Z,409.90
2018-12-19T07:55:10.771Z,409.59
2018-12-19T07:56:10.717Z,408.45
2018-12-19T07:57:10.716Z,408.57
2018-12-19T07:58:10.708Z,408.80
2018-12-19T07:59:10.829Z,409.13
2018-12-19T08:00:10.666Z,409.66
2018-12-19T08:01:10.671Z,408.58
2018-12-19T08:02:10.641Z,409.21
2018-12-19T08:03:10.655Z,409.63
2018-12-19T08:04:10.631Z,408.37
2018-12-19T08:05:10.635Z,409.30
2018-12-19T08:06:10.605Z,408.67
2018-12-19T08:07:10.592Z,409.31
2018-12-19T08:08:10.573Z,410.24
2018-12-19T08:09:10.591Z,409.73
2018-12-19T08:10:10.593Z,408.62
2018-12-19T08:11:10.552Z,409.05
2018-12-19T08:12:10.552Z,409.64
2018-12-19T08:13:10.566Z,408.82
2018-12-19T08:14:10.521Z,408.86
2018-12-19T08:15:10.517Z,410.18
2018-12-19T08:16:10.527Z,408.52
2018-12-19T08:17:10.489Z,409.06
2018-12-19T08:18:10.486Z,409.46
2018-12-19T08:19:10.465Z,410.16
2018-12-19T08:20:10.471Z,410.24
2018-12-19T08:21:10.455Z,410.28
2018-12-19T08:22:10.468Z,410.59
2018-12-19T08:23:10.437Z,408.07
2018-12-19T08:24:10.426Z,410.29
2018-12-19T08:25:10.401Z,409.91
2018-12-19T08:26:10.387Z,409.30
2018-12-19T08:27:10.398Z,408.21
2018-12-19T08:28:10.364Z,410.71
2018-12-19T08:29:10.357Z,409.98
2018-12-19T08:30:10.353Z,409.27
2018-12-19T08:31:10.340Z,410.97
2018-12-19T08:32:10.351Z,409.83
2018-12-19T08:33:10.326Z,408.83
2018-12-19T08:34:10.303Z,409.13
2018-12-19T08:35:10.292Z,408.25
2018-12-19T08:36:10.289Z,409.90
2018-12-19T08:37:10.271Z,409.59
2018-12-19T08:38:10.259Z,409.42
2018-12-19T08:39:10.267Z,409.48
2018-12-19T08:40:10.236Z,407.38
2018-12-19T08:41:10.247Z,409.49
2018-12-19T08:42:10.227Z,409.72
2018-12-19T08:43:10.204Z,408.63
2018-12-19T08:44:10.206Z,409.49
2018-12-19T08:45:10.198Z,407.80
2018-12-19T08:46:14.487Z,410.14
2018-12-19T08:47:10.215Z,410.30
2018-12-19T08:48:10.147Z,409.78
2018-12-19T08:49:10.139Z,408.95
2018-12-19T08:50:10.176Z,409.98
2018-12-19T08:51:10.118Z,409.39
2018-12-19T08:52:10.113Z,409.28
2018-12-19T08:53:10.121Z,408.83
2018-12-19T08:54:10.107Z,409.71
2018-12-19T08:55:10.083Z,408.83
2018-12-19T08:56:10.099Z,408.93
2018-12-19T08:57:10.055Z,409.51
2018-12-19T08:58:10.052Z,407.80
2018-12-19T08:59:10.015Z,408.19
2018-12-19T09:00:10.023Z,409.10
2018-12-19T09:01:10.053Z,409.91
2018-12-19T09:02:10.009Z,408.29
2018-12-19T09:03:09.995Z,409.86
2018-12-19T09:04:09.977Z,407.64
2018-12-19T09:05:09.956Z,409.14
2018-12-19T09:06:09.952Z,409.27
2018-12-19T09:07:09.966Z,408.35
2018-12-19T09:08:09.930Z,407.98
2018-12-19T09:09:09.993Z,407.83
2018-12-19T09:10:09.910Z,407.56
2018-12-19T09:11:09.893Z,407.83
2018-12-19T09:12:09.915Z,409.74
2018-12-19T09:13:09.895Z,407.51
2018-12-19T09:14:09.878Z,410.50
2018-12-19T09:15:09.872Z,409.41
2018-12-19T09:16:09.845Z,407.66
2018-12-19T09:17:09.868Z,408.83
2018-12-19T09:18:09.821Z,409.35
2018-12-19T09:19:09.821Z,409.36
2018-12-19T09:20:09.820Z,409.13
2018-12-19T09:21:09.808Z,410.08
2018-12-19T09:22:09.783Z,409.50
2018-12-19T09:23:09.765Z,408.17
2018-12-19T09:24:09.814Z,408.54
2018-12-19T09:25:09.760Z,408.60
2018-12-19T09:26:09.748Z,409.52
2018-12-19T09:27:09.730Z,407.92
2018-12-19T09:28:09.725Z,408.75
2018-12-19T09:29:09.703Z,408.64
2018-12-19T09:30:09.706Z,410.14
2018-12-19T09:31:09.675Z,409.14
2018-12-19T09:32:09.671Z,407.77
2018-12-19T09:33:09.675Z,408.98
2018-12-19T09:34:09.665Z,409.70
2018-12-19T09:35:09.644Z,407.48
2018-12-19T09:36:09.674Z,409.14
2018-12-19T09:37:09.616Z,408.49
2018-12-19T09:38:09.613Z,408.60
2018-12-19T09:39:09.634Z,407.42
2018-12-19T09:40:09.585Z,408.71
2018-12-19T09:41:12.409Z,410.02
2018-12-19T09:42:09.582Z,408.81
2018-12-19T09:43:09.560Z,409.01
2018-12-19T09:44:09.548Z,409.47
2018-12-19T09:45:09.552Z,408.55
2018-12-19T09:46:09.519Z,410.01
2018-12-19T09:47:09.520Z,409.43
2018-12-19T09:48:09.525Z,409.00
2018-12-19T09:49:12.497Z,409.45
2018-12-19T09:50:09.481Z,409.13
2018-12-19T09:51:09.456Z,409.81
2018-12-19T09:52:09.445Z,406.96
2018-12-19T09:53:09.443Z,409.45
2018-12-19T09:54:09.451Z,407.91
2018-12-19T09:55:09.419Z,408.17
2018-12-19T09:56:09.400Z,409.82
2018-12-19T09:57:09.408Z,409.00
2018-12-19T09:58:09.385Z,409.47
2018-12-19T09:59:09.397Z,408.89
2018-12-19T10:00:09.375Z,409.72
2018-12-19T10:01:09.361Z,410.04
2018-12-19T10:02:09.358Z,409.67
2018-12-19T10:03:09.325Z,409.89
2018-12-19T10:04:09.331Z,409.02
2018-12-19T10:05:09.321Z,409.57
2018-12-19T10:06:09.308Z,409.89
2018-12-19T10:07:09.304Z,409.76
2018-12-19T10:08:09.308Z,409.59
2018-12-19T10:09:14.794Z,409.70
2018-12-19T10:10:10.260Z,407.21
2018-12-19T10:11:09.256Z,409.92
2018-12-19T10:12:09.248Z,408.99
2018-12-19T10:13:09.274Z,410.07
2018-12-19T10:14:09.236Z,408.70
2018-12-19T10:15:09.200Z,409.13
2018-12-19T10:16:09.195Z,410.05
2018-12-19T10:17:09.189Z,408.33
2018-12-19T10:18:09.179Z,409.88
2018-12-19T10:19:09.217Z,409.58
2018-12-19T10:20:09.159Z,409.34
2018-12-19T10:21:09.156Z,409.62
2018-12-19T10:22:09.128Z,408.19
2018-12-19T10:23:09.116Z,408.53
2018-12-19T10:24:09.120Z,408.96
2018-12-19T10:25:09.132Z,410.42
2018-12-19T10:26:09.122Z,409.18
2018-12-19T10:27:09.067Z,409.85
2018-12-19T10:28:09.057Z,409.29
2018-12-19T10:29:09.060Z,409.26
2018-12-19T10:30:09.048Z,409.51
2018-12-19T10:31:09.054Z,409.95
2018-12-19T10:32:09.029Z,408.84
2018-12-19T10:33:09.000Z,409.74
2018-12-19T10:34:08.996Z,409.36
2018-12-19T10:35:09.003Z,409.46
2018-12-19T10:36:08.983Z,408.79
2018-12-19T10:37:08.970Z,408.45
2018-12-19T10:38:08.953Z,409.52
2018-12-19T10:39:08.949Z,409.26
2018-12-19T10:40:08.944Z,409.61
2018-12-19T10:41:08.955Z,408.57
2018-12-19T10:42:08.911Z,409.01
2018-12-19T10:43:08.926Z,410.51
2018-12-19T10:44:08.893Z,409.50
2018-12-19T10:45:08.876Z,409.67
2018-12-19T10:46:08.870Z,408.37
2018-12-19T10:47:08.867Z,408.89
2018-12-19T10:48:08.853Z,410.19
2018-12-19T10:49:08.844Z,408.27
2018-12-19T10:50:08.837Z,409.67
2018-12-19T10:51:08.859Z,408.35
2018-12-19T10:52:08.848Z,408.50
2018-12-19T10:53:08.793Z,409.49
2018-12-19T10:54:08.805Z,410.34
2018-12-19T10:55:08.766Z,409.41
2018-12-19T10:56:08.757Z,408.79
2018-12-19T10:57:08.752Z,409.22
2018-12-19T10:58:08.759Z,410.04
2018-12-19T10:59:08.734Z,408.16
2018-12-19T11:00:08.735Z,409.10
2018-12-19T11:01:08.706Z,409.40
2018-12-19T11:02:08.701Z,409.24
2018-12-19T11:03:08.711Z,410.16
2018-12-19T11:04:08.689Z,409.59
2018-12-19T11:05:08.660Z,409.71
2018-12-19T11:06:08.661Z,408.16
2018-12-19T11:07:08.680Z,409.17
2018-12-19T11:08:08.649Z,408.73
2018-12-19T11:09:08.630Z,409.72
2018-12-19T11:10:08.624Z,409.45
2018-12-19T11:11:08.607Z,409.62
2018-12-19T11:12:08.622Z,409.01
2018-12-19T11:13:08.578Z,409.96
2018-12-19T11:14:08.589Z,409.10
2018-12-19T11:15:08.556Z,409.09
2018-12-19T11:16:08.555Z,409.80
2018-12-19T11:17:08.533Z,409.42
2018-12-19T11:18:08.534Z,409.10
2018-12-19T11:19:08.505Z,409.49
2018-12-19T11:20:08.537Z,409.83
2018-12-19T11:21:08.490Z,408.00
2018-12-19T11:22:08.509Z,409.57
2018-12-19T11:23:08.491Z,407.63
2018-12-19T11:24:08.481Z,408.08
2018-12-19T11:25:08.498Z,409.84
2018-12-19T11:26:08.421Z,408.66
2018-12-19T11:27:08.424Z,409.39
2018-12-19T11:28:08.414Z,409.04
2018-12-19T11:29:08.424Z,409.61
2018-12-19T11:30:08.384Z,409.49
2018-12-19T11:31:08.421Z,409.54
2018-12-19T11:32:08.383Z,409.06
2018-12-19T11:33:08.380Z,408.51
2018-12-19T11:34:08.352Z,408.84
2018-12-19T11:35:08.358Z,408.32
2018-12-19T11:36:08.342Z,408.40
2018-12-19T11:37:08.332Z,408.25
2018-12-19T11:38:08.308Z,408.59
2018-12-19T11:39:08.310Z,409.01
2018-12-19T11:40:08.284Z,409.79
2018-12-19T11:41:08.290Z,408.37
2018-12-19T11:42:08.332Z,408.80
2018-12-19T11:43:08.255Z,409.23
2018-12-19T11:44:08.246Z,409.45
2018-12-19T11:45:08.241Z,408.79
2018-12-19T11:46:08.221Z,409.16
2018-12-19T11:47:08.237Z,409.31
2018-12-19T11:48:08.194Z,409.33
2018-12-19T11:49:08.179Z,408.79
2018-12-19T11:50:08.168Z,408.69
2018-12-19T11:51:08.170Z,409.51
2018-12-19T11:52:08.191Z,408.74
2018-12-19T11:53:08.141Z,409.34
2018-12-19T11:54:08.131Z,407.93
2018-12-19T11:55:08.113Z,407.21
2018-12-19T11:56:08.123Z,409.53
2018-12-19T11:57:08.093Z,410.09
2018-12-19T11:58:08.110Z,409.66
2018-12-19T11:59:08.070Z,408.43
2018-12-19T12:00:08.070Z,409.23
2018-12-19T12:01:08.069Z,408.02
2018-12-19T12:02:08.066Z,409.69
2018-12-19T12:03:08.031Z,409.78
2018-12-19T12:04:08.038Z,408.90
2018-12-19T12:05:08.022Z,409.71
2018-12-19T12:06:08.000Z,410.40
2018-12-19T12:07:08.024Z,409.15
2018-12-19T12:08:07.992Z,409.39
2018-12-19T12:09:07.972Z,409.27
2018-12-19T12:10:07.944Z,407.93
2018-12-19T12:11:07.932Z,409.23
2018-12-19T12:12:07.951Z,410.10
2018-12-19T12:13:07.924Z,409.28
2018-12-19T12:14:07.930Z,408.26
2018-12-19T12:15:07.909Z,409.91
2018-12-19T12:16:07.888Z,409.68
2018-12-19T12:17:08.830Z,409.58
2018-12-19T12:18:07.877Z,408.31
2018-12-19T12:19:07.864Z,409.52
2018-12-19T12:20:07.866Z,409.53
2018-12-19T12:21:07.833Z,409.72
2018-12-19T12:22:07.826Z,408.59
2018-12-19T12:23:07.800Z,409.12
2018-12-19T12:24:07.832Z,409.78
2018-12-19T12:25:07.798Z,408.97
2018-12-19T12:26:07.781Z,410.00
2018-12-19T12:27:07.788Z,408.40
2018-12-19T12:28:07.785Z,409.36